Time;durP1;ratioP1;P1;durP2;ratioP2;P2;SDS_P1;SDS_P2;PMS_P1;PMS_P2;Temp;Humidity;BMP_temperature;BMP_pressure;BME280_temperature;BME280_humidity;BME280_pressure;Samples;Min_cycle;Max_cycle;Signal;HPM_P1;HPM_P2
2023/09/05 00:00:26;;;;;;;6.23;5.50;;;17.30;99.90;;;;;;5057097;28;20458;-74
2023/09/05 00:02:54;;;;;;;5.60;5.10;;;17.30;99.90;;;;;;5057057;28;20415;-75
2023/09/05 00:05:23;;;;;;;6.70;6.10;;;17.30;99.90;;;;;;5056821;28;20475;-75
2023/09/05 00:07:51;;;;;;;6.37;5.87;;;17.20;99.90;;;;;;5056201;28;20499;-74
2023/09/05 00:10:19;;;;;;;5.77;5.23;;;17.10;99.90;;;;;;5055874;28;20930;-74
2023/09/05 00:12:51;;;;;;;5.80;5.30;;;17.10;99.90;;;;;;5055644;28;20967;-74
2023/09/05 00:15:20;;;;;;;6.40;5.80;;;17.10;99.90;;;;;;5056667;28;20435;-74
2023/09/05 00:17:49;;;;;;;5.90;5.40;;;17.10;99.90;;;;;;5056917;28;20409;-74
2023/09/05 00:20:17;;;;;;;6.27;5.77;;;17.00;99.90;;;;;;5057052;28;20486;-75
2023/09/05 00:22:45;;;;;;;6.20;5.70;;;17.00;99.90;;;;;;5055208;28;20437;-74
2023/09/05 00:25:15;;;;;;;6.57;6.03;;;17.00;99.90;;;;;;5056330;28;20420;-74
2023/09/05 00:27:43;;;;;;;6.00;5.50;;;17.00;99.90;;;;;;5056582;28;20519;-74
2023/09/05 00:30:14;;;;;;;6.20;5.70;;;16.90;99.90;;;;;;5055185;28;20799;-74
2023/09/05 00:32:46;;;;;;;6.27;5.67;;;16.90;99.90;;;;;;5054899;28;20990;-75
2023/09/05 00:35:15;;;;;;;6.20;5.70;;;16.90;99.90;;;;;;5054951;28;20507;-74
2023/09/05 00:37:43;;;;;;;6.00;5.37;;;16.80;99.90;;;;;;5054867;28;20507;-74
2023/09/05 00:40:12;;;;;;;7.07;6.47;;;16.80;99.90;;;;;;5056320;28;20515;-74
2023/09/05 00:42:40;;;;;;;6.13;5.60;;;16.70;99.90;;;;;;5054807;28;20418;-74
2023/09/05 00:45:10;;;;;;;6.70;6.03;;;16.80;99.90;;;;;;5054771;28;20457;-74
2023/09/05 00:47:40;;;;;;;6.30;5.70;;;16.70;99.90;;;;;;5056772;28;20393;-74
2023/09/05 00:50:10;;;;;;;6.30;5.70;;;16.70;99.90;;;;;;5056105;28;20975;-74
2023/09/05 00:52:39;;;;;;;7.30;6.70;;;16.70;99.90;;;;;;5054958;28;20804;-74
2023/09/05 00:55:08;;;;;;;6.67;6.07;;;16.60;99.90;;;;;;5053477;28;20983;-74
2023/09/05 00:57:36;;;;;;;7.27;6.60;;;16.60;99.90;;;;;;5056179;28;20405;-74
2023/09/05 01:00:06;;;;;;;7.13;6.40;;;16.60;99.90;;;;;;5054569;28;20470;-75
2023/09/05 01:02:35;;;;;;;6.43;5.93;;;16.60;99.90;;;;;;5054505;28;20433;-74
2023/09/05 01:05:04;;;;;;;6.87;6.17;;;16.50;99.90;;;;;;5060910;23;20566;-75
2023/09/05 01:07:50;;;;;;;7.00;6.03;;;16.50;99.90;;;;;;5056129;28;20400;-74
2023/09/05 01:10:23;;;;;;;7.33;6.73;;;16.50;99.90;;;;;;5054322;28;20953;-74
2023/09/05 01:12:51;;;;;;;7.63;6.93;;;16.40;99.90;;;;;;5054142;28;20499;-74
2023/09/05 01:15:21;;;;;;;7.57;6.97;;;16.40;99.90;;;;;;5054293;28;20490;-74
2023/09/05 01:17:53;;;;;;;7.17;6.57;;;16.40;99.90;;;;;;5055377;28;20768;-75
2023/09/05 01:20:34;;;;;;;8.10;7.40;;;16.30;99.90;;;;;;5054016;28;20432;-74
2023/09/05 01:23:13;;;;;;;7.47;6.77;;;16.30;99.90;;;;;;5053967;28;20480;-74
2023/09/05 01:25:43;;;;;;;8.50;7.70;;;16.30;99.90;;;;;;5054056;28;20413;-74
2023/09/05 01:28:14;;;;;;;7.37;6.77;;;16.30;99.90;;;;;;5053904;28;20441;-74
2023/09/05 01:30:43;;;;;;;8.20;7.30;;;16.30;99.90;;;;;;5053900;28;20458;-74
2023/09/05 01:33:14;;;;;;;9.13;8.20;;;16.20;99.90;;;;;;5054996;28;20516;-74
2023/09/05 01:35:42;;;;;;;8.30;7.60;;;16.20;99.90;;;;;;5053815;28;20442;-74
2023/09/05 01:38:11;;;;;;;8.20;7.40;;;16.20;99.90;;;;;;5055058;28;20430;-74
2023/09/05 01:40:39;;;;;;;8.13;7.13;;;16.20;99.90;;;;;;5053687;28;20471;-74
2023/09/05 01:43:09;;;;;;;8.10;7.30;;;16.20;99.90;;;;;;5054964;28;20465;-74
2023/09/05 01:45:37;;;;;;;8.10;7.30;;;16.10;99.90;;;;;;5054983;28;20424;-75
2023/09/05 01:48:06;;;;;;;8.00;7.20;;;16.20;99.90;;;;;;5054914;28;20471;-74
2023/09/05 01:50:34;;;;;;;8.10;7.40;;;16.10;99.90;;;;;;5053604;28;20432;-74
2023/09/05 01:53:02;;;;;;;8.00;7.20;;;16.10;99.90;;;;;;5053528;28;20415;-74
2023/09/05 01:55:30;;;;;;;8.30;7.60;;;16.00;99.90;;;;;;5055003;28;20409;-74
2023/09/05 01:57:58;;;;;;;8.40;7.70;;;16.00;99.90;;;;;;5053597;28;20443;-74
2023/09/05 02:00:28;;;;;;;7.67;7.00;;;16.00;99.90;;;;;;5053353;28;20428;-74
2023/09/05 02:02:56;;;;;;;8.00;7.30;;;16.00;99.90;;;;;;5053173;28;20477;-74
2023/09/05 02:05:24;;;;;;;8.40;7.70;;;16.00;99.90;;;;;;5053345;28;20428;-74
2023/09/05 02:07:52;;;;;;;8.23;7.43;;;15.90;99.90;;;;;;5054733;28;20525;-74
2023/09/05 02:10:20;;;;;;;8.50;7.70;;;15.90;99.90;;;;;;5053354;28;20409;-74
2023/09/05 02:12:49;;;;;;;8.43;7.73;;;15.90;99.90;;;;;;5053011;28;20443;-74
2023/09/05 02:15:17;;;;;;;7.27;6.67;;;15.90;99.90;;;;;;5054724;28;20445;-74
2023/09/05 02:17:46;;;;;;;8.20;7.60;;;15.90;99.90;;;;;;5053222;28;20425;-74
2023/09/05 02:20:15;;;;;;;8.27;7.47;;;15.90;99.90;;;;;;5054428;28;20441;-74
2023/09/05 02:22:45;;;;;;;8.47;7.70;;;15.90;99.90;;;;;;5054357;28;20494;-74
2023/09/05 02:25:13;;;;;;;7.97;7.27;;;15.80;99.90;;;;;;5053036;28;20451;-74
2023/09/05 02:27:41;;;;;;;10.60;8.20;;;15.90;99.90;;;;;;5052949;28;20861;-73
2023/09/05 02:30:10;;;;;;;7.43;6.83;;;15.80;99.90;;;;;;5052986;28;20481;-74
2023/09/05 02:32:39;;;;;;;8.37;7.70;;;15.80;99.90;;;;;;5054044;28;20440;-74
2023/09/05 02:35:09;;;;;;;8.77;7.97;;;15.80;99.90;;;;;;5052608;28;20487;-74
2023/09/05 02:37:40;;;;;;;8.40;7.70;;;15.80;99.90;;;;;;5052628;28;20478;-74
2023/09/05 02:40:09;;;;;;;8.50;7.80;;;15.80;99.90;;;;;;5052722;28;20468;-74
2023/09/05 02:42:38;;;;;;;8.50;7.70;;;15.70;99.90;;;;;;5052536;28;20465;-74
2023/09/05 02:45:07;;;;;;;9.10;8.30;;;15.70;99.90;;;;;;5052425;28;20440;-74
2023/09/05 02:47:35;;;;;;;8.93;8.23;;;15.70;99.90;;;;;;5052410;28;20553;-73
2023/09/05 02:50:03;;;;;;;9.50;8.60;;;15.70;99.90;;;;;;5052433;28;20931;-74
2023/09/05 02:52:34;;;;;;;9.33;8.47;;;15.70;99.90;;;;;;5053969;28;20434;-74
2023/09/05 02:55:15;;;;;;;8.80;8.10;;;15.70;99.90;;;;;;5053989;28;20787;-74
2023/09/05 02:57:43;;;;;;;9.70;8.93;;;15.70;99.90;;;;;;5052388;28;20485;-73
2023/09/05 03:00:13;;;;;;;9.20;8.20;;;15.70;99.90;;;;;;5053949;28;20437;-74
2023/09/05 03:02:42;;;;;;;8.90;8.10;;;15.70;99.90;;;;;;5053442;28;20494;-74
2023/09/05 03:05:12;;;;;;;9.73;8.93;;;15.60;99.90;;;;;;5053424;28;20826;-74
2023/09/05 03:07:42;;;;;;;10.63;9.70;;;15.60;99.90;;;;;;5052095;28;20870;-74
2023/09/05 03:10:11;;;;;;;8.73;7.93;;;15.60;99.90;;;;;;5052509;28;20421;-73
2023/09/05 03:12:39;;;;;;;9.47;8.67;;;15.60;99.90;;;;;;5052005;28;20492;-73
2023/09/05 03:15:09;;;;;;;10.47;9.57;;;15.50;99.90;;;;;;5052037;28;20901;-73
2023/09/05 03:17:38;;;;;;;10.00;9.10;;;15.60;99.90;;;;;;5051549;28;20757;-73
2023/09/05 03:20:08;;;;;;;9.40;8.60;;;15.60;99.90;;;;;;5051989;28;20416;-73
2023/09/05 03:22:36;;;;;;;12.60;11.40;;;15.60;99.90;;;;;;5051810;28;20440;-73
2023/09/05 03:25:06;;;;;;;15.70;14.20;;;15.50;99.90;;;;;;5051793;28;20524;-73
2023/09/05 03:27:34;;;;;;;17.20;15.60;;;15.50;99.90;;;;;;5053499;28;20489;-74
2023/09/05 03:30:03;;;;;;;23.17;20.77;;;15.50;99.90;;;;;;5051927;28;20449;-74
2023/09/05 03:32:31;;;;;;;16.30;14.60;;;15.50;99.90;;;;;;5051942;28;20442;-73
2023/09/05 03:34:59;;;;;;;15.80;14.20;;;15.50;99.90;;;;;;5051907;28;20631;-73
2023/09/05 03:37:28;;;;;;;15.90;14.40;;;15.50;99.90;;;;;;5051828;28;20450;-73
2023/09/05 03:39:56;;;;;;;11.87;10.70;;;15.40;99.90;;;;;;5053222;28;20966;-73
2023/09/05 03:42:26;;;;;;;11.67;10.57;;;15.40;99.90;;;;;;5052077;28;20857;-73
2023/09/05 03:44:54;;;;;;;9.73;8.83;;;15.40;99.90;;;;;;5052970;28;20453;-73
2023/09/05 03:47:23;;;;;;;8.37;7.60;;;15.40;99.90;;;;;;5051750;28;20457;-73
2023/09/05 03:49:51;;;;;;;9.77;8.90;;;15.40;99.90;;;;;;5052967;28;21033;-73
2023/09/05 03:52:20;;;;;;;8.80;8.00;;;15.40;99.90;;;;;;5052988;28;20437;-73
2023/09/05 03:54:48;;;;;;;8.23;7.53;;;15.40;99.90;;;;;;5053076;28;20461;-74
2023/09/05 03:57:17;;;;;;;9.63;8.87;;;15.40;99.90;;;;;;5053218;28;20842;-73
2023/09/05 03:59:46;;;;;;;8.60;7.90;;;15.40;99.90;;;;;;5052841;28;20442;-73
2023/09/05 04:02:14;;;;;;;9.20;8.50;;;15.30;99.90;;;;;;5051529;28;20466;-73
2023/09/05 04:04:42;;;;;;;9.27;8.50;;;15.40;99.90;;;;;;5051594;28;20456;-74
2023/09/05 04:07:11;;;;;;;9.00;8.20;;;15.30;99.90;;;;;;5051551;28;20938;-73
2023/09/05 04:09:39;;;;;;;10.73;9.83;;;15.40;99.90;;;;;;5052809;28;20417;-73
2023/09/05 04:12:08;;;;;;;9.43;8.63;;;15.30;99.90;;;;;;5051738;28;20450;-73
2023/09/05 04:14:36;;;;;;;9.70;8.90;;;15.30;99.90;;;;;;5052601;28;20450;-73
2023/09/05 04:17:06;;;;;;;9.27;8.57;;;15.40;99.90;;;;;;5052726;28;20455;-73
2023/09/05 04:19:34;;;;;;;9.33;8.63;;;15.30;99.90;;;;;;5051669;28;20469;-73
2023/09/05 04:22:02;;;;;;;9.50;8.80;;;15.40;99.90;;;;;;5052578;28;20413;-73
2023/09/05 04:24:31;;;;;;;9.97;9.17;;;15.30;99.90;;;;;;5051376;28;20561;-73
2023/09/05 04:26:59;;;;;;;9.50;8.60;;;15.40;99.90;;;;;;5052778;28;20500;-73
2023/09/05 04:29:28;;;;;;;10.90;9.73;;;15.30;99.90;;;;;;5054616;28;20837;-73
2023/09/05 04:31:56;;;;;;;10.30;9.40;;;15.30;99.90;;;;;;5055301;28;20543;-73
2023/09/05 04:34:26;;;;;;;10.93;9.87;;;15.30;99.90;;;;;;5055291;28;20458;-73
2023/09/05 04:36:54;;;;;;;9.80;8.90;;;15.30;99.90;;;;;;5055293;28;20455;-73
2023/09/05 04:39:23;;;;;;;10.57;9.67;;;15.30;99.90;;;;;;5055153;28;20503;-73
2023/09/05 04:41:51;;;;;;;10.10;9.10;;;15.30;99.90;;;;;;5054942;28;20824;-73
2023/09/05 04:44:19;;;;;;;9.87;8.80;;;15.30;99.90;;;;;;5056142;28;20539;-73
2023/09/05 04:46:47;;;;;;;9.00;8.17;;;15.30;99.90;;;;;;5056402;28;20776;-74
2023/09/05 04:49:15;;;;;;;10.60;9.70;;;15.30;99.90;;;;;;5054982;28;20496;-74
2023/09/05 04:51:45;;;;;;;10.30;9.30;;;15.20;99.90;;;;;;5056336;28;20437;-74
2023/09/05 04:54:13;;;;;;;10.23;9.10;;;15.20;99.90;;;;;;5055937;28;20479;-74
2023/09/05 04:56:41;;;;;;;9.90;9.10;;;15.20;99.90;;;;;;5054740;28;20437;-74
2023/09/05 04:59:09;;;;;;;10.43;9.53;;;15.20;99.90;;;;;;5055809;28;20848;-74
2023/09/05 05:01:37;;;;;;;10.50;9.70;;;15.20;99.90;;;;;;5054504;28;20537;-74
2023/09/05 05:04:05;;;;;;;10.47;9.67;;;15.20;99.90;;;;;;5055653;28;20505;-74
2023/09/05 05:06:34;;;;;;;8.63;7.00;;;15.20;99.90;;;;;;5055718;28;20995;-74
2023/09/05 05:09:03;;;;;;;10.47;9.60;;;15.20;99.90;;;;;;5054289;28;20987;-74
2023/09/05 05:11:31;;;;;;;11.43;10.40;;;15.20;99.90;;;;;;5055649;28;20874;-73
2023/09/05 05:14:00;;;;;;;10.80;9.90;;;15.20;99.90;;;;;;5055575;28;20432;-73
2023/09/05 05:16:28;;;;;;;11.13;10.13;;;15.20;99.90;;;;;;5055979;28;21011;-73
2023/09/05 05:18:56;;;;;;;10.53;9.53;;;15.20;99.90;;;;;;5055483;28;20434;-73
2023/09/05 05:21:24;;;;;;;13.27;9.77;;;15.20;99.90;;;;;;5055647;28;20937;-73
2023/09/05 05:23:52;;;;;;;11.87;10.90;;;15.20;99.90;;;;;;5055832;28;20477;-73
2023/09/05 05:26:23;;;;;;;11.83;10.77;;;15.20;99.90;;;;;;5055426;28;20485;-73
2023/09/05 05:28:51;;;;;;;12.47;10.77;;;15.20;99.90;;;;;;5055762;28;20499;-73
2023/09/05 05:31:19;;;;;;;10.60;9.70;;;15.30;99.90;;;;;;5054031;28;20434;-72
2023/09/05 05:33:47;;;;;;;10.30;9.40;;;15.20;99.90;;;;;;5055790;28;20504;-73
2023/09/05 05:36:16;;;;;;;10.20;9.30;;;15.30;99.90;;;;;;5055504;28;20974;-73
2023/09/05 05:38:44;;;;;;;10.80;9.80;;;15.30;99.90;;;;;;5055140;28;20504;-73
2023/09/05 05:41:13;;;;;;;10.83;9.90;;;15.30;99.90;;;;;;5054578;28;20405;-73
2023/09/05 05:43:42;;;;;;;10.87;9.87;;;15.30;99.90;;;;;;5055067;28;20448;-73
2023/09/05 05:46:12;;;;;;;12.10;11.00;;;15.30;99.90;;;;;;5053905;28;20452;-73
2023/09/05 05:48:40;;;;;;;10.70;9.80;;;15.30;99.90;;;;;;5055522;28;20529;-73
2023/09/05 05:51:08;;;;;;;10.37;9.47;;;15.30;99.90;;;;;;5055134;28;20866;-73
2023/09/05 05:53:36;;;;;;;10.60;9.70;;;15.40;99.90;;;;;;5055370;28;20431;-73
2023/09/05 05:56:05;;;;;;;11.00;10.00;;;15.30;99.90;;;;;;5054764;28;20434;-73
2023/09/05 05:58:33;;;;;;;11.90;10.87;;;15.30;99.90;;;;;;5055248;28;20533;-73
2023/09/05 06:01:06;;;;;;;12.03;10.93;;;15.40;99.90;;;;;;5054625;28;20472;-73
2023/09/05 06:03:35;;;;;;;13.53;12.33;;;15.40;99.90;;;;;;5054381;28;20444;-73
2023/09/05 06:06:04;;;;;;;12.40;11.00;;;15.40;99.90;;;;;;5053287;28;20867;-73
2023/09/05 06:08:32;;;;;;;12.50;10.47;;;15.50;99.90;;;;;;5054475;28;20533;-73
2023/09/05 06:11:00;;;;;;;14.70;12.43;;;15.50;99.90;;;;;;5054718;28;20450;-73
2023/09/05 06:13:29;;;;;;;11.70;10.70;;;15.60;99.90;;;;;;5054372;28;20792;-74
2023/09/05 06:15:57;;;;;;;10.67;9.77;;;15.70;99.90;;;;;;5054433;28;21014;-73
2023/09/05 06:18:27;;;;;;;10.00;9.07;;;15.90;99.90;;;;;;5054661;28;20971;-73
2023/09/05 06:20:56;;;;;;;10.30;9.40;;;16.10;99.90;;;;;;5054638;28;20434;-74
2023/09/05 06:23:25;;;;;;;9.20;8.30;;;16.20;99.90;;;;;;5052932;28;20465;-74
2023/09/05 06:25:53;;;;;;;9.53;8.67;;;16.40;99.90;;;;;;5054498;28;20500;-74
2023/09/05 06:28:21;;;;;;;8.20;7.40;;;16.50;99.90;;;;;;5054137;28;20438;-74
2023/09/05 06:30:49;;;;;;;8.60;7.90;;;16.70;99.90;;;;;;5054104;28;20466;-74
2023/09/05 06:33:17;;;;;;;11.70;9.83;;;16.80;99.90;;;;;;5052837;28;20498;-74
2023/09/05 06:35:47;;;;;;;10.30;9.23;;;17.00;99.90;;;;;;5052800;28;20813;-74
2023/09/05 06:38:16;;;;;;;11.03;9.93;;;17.10;99.90;;;;;;5053033;28;20435;-74
2023/09/05 06:40:44;;;;;;;8.63;7.90;;;17.20;99.90;;;;;;5054231;28;20405;-74
2023/09/05 06:43:12;;;;;;;8.17;7.57;;;17.40;99.90;;;;;;5052586;28;20441;-74
2023/09/05 06:45:41;;;;;;;8.67;7.80;;;17.50;99.90;;;;;;5053712;28;20490;-74
2023/09/05 06:48:09;;;;;;;7.27;6.57;;;17.60;99.90;;;;;;5053885;28;20442;-74
2023/09/05 06:50:37;;;;;;;7.17;6.47;;;17.70;99.90;;;;;;5053780;28;20412;-74
2023/09/05 06:53:06;;;;;;;7.63;6.93;;;17.80;99.90;;;;;;5053082;28;21038;-73
2023/09/05 06:55:35;;;;;;;8.00;7.20;;;17.90;99.90;;;;;;5052338;28;20472;-74
2023/09/05 06:58:04;;;;;;;7.23;6.53;;;18.10;99.90;;;;;;5053574;28;20441;-74
2023/09/05 07:00:33;;;;;;;7.60;6.50;;;18.20;99.90;;;;;;5053989;28;20509;-74
2023/09/05 07:03:01;;;;;;;8.43;7.63;;;18.30;99.90;;;;;;5053893;28;20608;-73
2023/09/05 07:05:30;;;;;;;8.60;7.70;;;18.40;99.90;;;;;;5053709;28;20444;-73
2023/09/05 07:07:58;;;;;;;7.97;7.17;;;18.50;99.90;;;;;;5052651;28;20953;-73
2023/09/05 07:10:28;;;;;;;8.07;7.20;;;18.60;99.90;;;;;;5053932;28;20438;-73
2023/09/05 07:12:56;;;;;;;7.03;6.40;;;18.60;99.90;;;;;;5053487;28;20521;-73
2023/09/05 07:15:24;;;;;;;6.93;6.33;;;18.70;99.90;;;;;;5053719;28;20529;-73
2023/09/05 07:17:52;;;;;;;6.90;5.67;;;18.60;99.90;;;;;;5052194;28;20881;-73
2023/09/05 07:20:20;;;;;;;7.40;5.97;;;18.70;99.90;;;;;;5053944;28;20444;-73
2023/09/05 07:22:48;;;;;;;6.20;5.70;;;18.70;99.90;;;;;;5053495;28;20870;-73
2023/09/05 07:25:18;;;;;;;7.27;6.67;;;18.80;99.90;;;;;;5052064;28;20954;-73
2023/09/05 07:27:47;;;;;;;5.87;5.37;;;18.90;99.90;;;;;;5053580;28;20434;-73
2023/09/05 07:30:16;;;;;;;6.53;5.93;;;18.90;99.90;;;;;;5053793;28;20445;-74
2023/09/05 07:32:45;;;;;;;6.50;5.90;;;18.90;99.90;;;;;;5051999;28;20446;-73
2023/09/05 07:35:13;;;;;;;9.43;5.70;;;19.00;99.90;;;;;;5052524;28;20449;-73
2023/09/05 07:37:42;;;;;;;6.80;5.47;;;19.00;99.90;;;;;;5052275;28;20807;-73
2023/09/05 07:40:11;;;;;;;6.97;6.27;;;19.00;99.90;;;;;;5053551;28;20537;-73
2023/09/05 07:42:41;;;;;;;11.73;7.97;;;19.10;99.90;;;;;;5053421;28;20962;-73
2023/09/05 07:45:12;;;;;;;6.60;5.97;;;19.20;99.90;;;;;;5053473;28;20964;-74
2023/09/05 07:47:40;;;;;;;6.40;5.77;;;19.30;99.90;;;;;;5051852;28;20859;-73
2023/09/05 07:50:09;;;;;;;6.50;5.30;;;19.40;99.90;;;;;;5053460;28;20465;-73
2023/09/05 07:52:37;;;;;;;9.57;8.40;;;19.50;99.90;;;;;;5053046;28;20472;-72
2023/09/05 07:55:06;;;;;;;9.73;7.87;;;19.50;99.90;;;;;;5053363;28;20571;-73
2023/09/05 07:57:36;;;;;;;6.80;6.17;;;19.70;99.90;;;;;;5053517;28;20468;-75
2023/09/05 08:00:08;;;;;;;6.23;5.63;;;19.80;99.90;;;;;;5053395;28;20448;-74
2023/09/05 08:02:42;;;;;;;5.83;5.20;;;19.90;99.90;;;;;;5053000;28;20501;-73
2023/09/05 08:05:10;;;;;;;6.47;5.73;;;20.00;99.90;;;;;;5056893;28;20519;-73
2023/09/05 08:07:38;;;;;;;5.97;5.13;;;20.10;99.90;;;;;;5055531;28;20442;-72
2023/09/05 08:10:08;;;;;;;5.40;4.90;;;20.20;99.90;;;;;;5057100;28;20441;-74
2023/09/05 08:12:36;;;;;;;4.73;4.33;;;20.30;99.90;;;;;;5055920;28;20946;-72
2023/09/05 08:15:06;;;;;;;5.43;4.93;;;20.40;99.90;;;;;;5055626;28;20912;-72
2023/09/05 08:17:34;;;;;;;5.90;4.40;;;20.50;99.90;;;;;;5055596;28;20583;-72
2023/09/05 08:20:05;;;;;;;5.70;5.10;;;20.60;99.90;;;;;;5056928;28;20553;-73
2023/09/05 08:22:33;;;;;;;6.23;5.00;;;20.70;99.90;;;;;;5056929;28;20538;-73
2023/09/05 08:25:01;;;;;;;5.27;4.77;;;20.80;99.90;;;;;;5056543;28;20476;-72
2023/09/05 08:27:29;;;;;;;10.30;6.23;;;20.80;99.90;;;;;;5056823;28;20928;-72
2023/09/05 08:29:58;;;;;;;5.40;4.90;;;20.90;99.90;;;;;;5057433;28;20438;-73
2023/09/05 08:32:27;;;;;;;4.60;4.20;;;21.00;99.90;;;;;;5058134;28;20442;-73
2023/09/05 08:34:55;;;;;;;5.23;4.83;;;21.10;99.90;;;;;;5055623;28;20462;-73
2023/09/05 08:37:25;;;;;;;9.20;6.67;;;21.10;99.90;;;;;;5056276;28;20900;-73
2023/09/05 08:39:54;;;;;;;4.77;4.30;;;21.20;99.90;;;;;;5055682;28;20449;-73
2023/09/05 08:42:23;;;;;;;4.17;3.70;;;21.30;99.90;;;;;;5057431;28;20445;-74
2023/09/05 08:44:54;;;;;;;4.97;4.17;;;21.40;99.90;;;;;;5055318;28;20496;-73
2023/09/05 08:47:22;;;;;;;4.97;4.47;;;21.50;99.90;;;;;;5055248;28;20461;-73
2023/09/05 08:49:50;;;;;;;5.07;4.57;;;21.50;99.90;;;;;;5056993;28;20855;-74
2023/09/05 08:52:21;;;;;;;5.07;4.30;;;21.60;99.90;;;;;;5056180;28;20492;-73
2023/09/05 08:54:51;;;;;;;4.73;4.00;;;21.70;99.90;;;;;;5056009;28;20468;-73
2023/09/05 08:57:20;;;;;;;4.33;3.77;;;21.70;99.90;;;;;;5057048;28;20466;-74
2023/09/05 08:59:48;;;;;;;6.23;4.20;;;21.80;99.90;;;;;;5055028;28;20867;-73
2023/09/05 09:02:17;;;;;;;5.17;4.20;;;21.90;99.90;;;;;;5055040;28;20440;-73
2023/09/05 09:04:52;;;;;;;5.03;4.10;;;22.00;99.90;;;;;;5054560;28;20478;-74
2023/09/05 09:07:26;;;;;;;6.30;4.13;;;22.10;99.90;;;;;;5055228;28;20448;-74
2023/09/05 09:09:56;;;;;;;3.90;3.60;;;22.20;99.90;;;;;;5056852;28;20427;-73
2023/09/05 09:12:29;;;;;;;4.17;3.70;;;22.20;99.90;;;;;;5056028;28;20525;-73
2023/09/05 09:14:59;;;;;;;5.37;3.50;;;22.30;99.90;;;;;;5055433;28;20892;-74
2023/09/05 09:17:28;;;;;;;4.17;3.63;;;22.40;99.90;;;;;;5056786;28;20438;-74
2023/09/05 09:19:57;;;;;;;6.37;3.77;;;22.50;99.90;;;;;;5057073;28;20818;-74
2023/09/05 09:22:27;;;;;;;5.63;4.60;;;22.60;99.90;;;;;;5056631;28;20450;-74
2023/09/05 09:24:56;;;;;;;4.53;3.60;;;22.70;99.90;;;;;;5055085;28;20476;-75
2023/09/05 09:27:24;;;;;;;4.20;3.47;;;22.70;99.90;;;;;;5056190;28;20433;-74
2023/09/05 09:29:56;;;;;;;5.80;3.30;;;22.80;99.90;;;;;;5055082;28;20470;-74
2023/09/05 09:32:24;;;;;;;4.47;3.70;;;22.90;99.90;;;;;;5054969;28;20504;-74
2023/09/05 09:34:52;;;;;;;3.77;3.30;;;23.00;99.90;;;;;;5055079;28;20465;-74
2023/09/05 09:37:25;;;;;;;5.13;4.40;;;23.00;99.90;;;;;;5054857;28;20481;-74
2023/09/05 09:39:59;;;;;;;5.17;3.23;;;23.10;99.90;;;;;;5055001;28;20808;-74
2023/09/05 09:42:28;;;;;;;3.90;3.50;;;23.20;99.90;;;;;;5056114;28;20452;-74
2023/09/05 09:44:56;;;;;;;3.20;2.90;;;23.30;99.90;;;;;;5056047;28;20466;-75
2023/09/05 09:47:27;;;;;;;3.73;3.43;;;23.40;99.90;;;;;;5056181;28;20438;-74
2023/09/05 09:49:56;;;;;;;5.73;4.23;;;23.40;99.90;;;;;;5056279;28;20422;-74
2023/09/05 09:52:25;;;;;;;3.93;3.63;;;23.50;99.90;;;;;;5054855;28;21016;-74
2023/09/05 09:54:58;;;;;;;4.33;3.70;;;23.60;99.90;;;;;;5055636;28;20507;-74
2023/09/05 09:57:35;;;;;;;3.70;3.30;;;23.60;99.90;;;;;;5056133;28;20411;-74
2023/09/05 10:00:15;;;;;;;3.77;3.40;;;23.60;99.90;;;;;;5055980;28;20430;-74
2023/09/05 10:02:44;;;;;;;4.20;3.67;;;23.70;99.90;;;;;;5054438;28;20434;-74
2023/09/05 10:05:15;;;;;;;3.93;3.47;;;23.80;99.90;;;;;;5055752;28;20515;-74
2023/09/05 10:07:44;;;;;;;3.97;3.67;;;23.90;99.90;;;;;;5055924;28;20445;-74
2023/09/05 10:10:15;;;;;;;3.60;3.30;;;24.00;99.90;;;;;;5055707;28;20442;-74
2023/09/05 10:12:46;;;;;;;3.97;3.33;;;24.00;99.90;;;;;;5056331;28;20510;-74
2023/09/05 10:15:15;;;;;;;3.57;3.17;;;24.10;99.90;;;;;;5055976;28;20458;-74
2023/09/05 10:17:45;;;;;;;4.40;3.47;;;24.20;99.90;;;;;;5055873;28;20430;-74
2023/09/05 10:20:19;;;;;;;3.73;3.43;;;24.30;99.90;;;;;;5055646;28;20418;-74
2023/09/05 10:22:53;;;;;;;3.90;3.40;;;24.30;99.90;;;;;;5054482;28;20492;-74
2023/09/05 10:25:23;;;;;;;3.70;3.17;;;24.30;99.90;;;;;;5055358;28;20473;-75
2023/09/05 10:27:53;;;;;;;3.70;2.83;;;24.40;99.90;;;;;;5053997;28;20442;-74
2023/09/05 10:30:22;;;;;;;4.13;3.30;;;24.50;99.90;;;;;;5056463;28;20979;-75
2023/09/05 10:32:53;;;;;;;4.50;3.17;;;24.50;99.90;;;;;;5056074;28;20450;-75
2023/09/05 10:35:22;;;;;;;3.93;2.90;;;24.50;99.90;;;;;;5058137;28;20493;-75
2023/09/05 10:37:53;;;;;;;5.07;3.60;;;24.60;99.90;;;;;;5056173;28;20446;-75
2023/09/05 10:40:33;;;;;;;3.67;3.37;;;24.70;99.90;;;;;;5054666;28;20422;-75
2023/09/05 10:43:04;;;;;;;3.23;2.90;;;24.70;99.90;;;;;;5053039;28;20473;-76
2023/09/05 10:45:34;;;;;;;2.73;2.47;;;24.80;99.90;;;;;;5054334;28;20430;-76
2023/09/05 10:48:15;;;;;;;3.07;2.70;;;24.80;99.90;;;;;;5053464;28;20448;-76
2023/09/05 10:51:06;;;;;;;4.57;3.00;;;24.90;99.90;;;;;;5052888;28;20916;-76
2023/09/05 10:53:36;;;;;;;4.60;3.10;;;24.90;99.90;;;;;;5052793;28;20985;-76
2023/09/05 10:56:05;;;;;;;4.53;3.30;;;25.00;99.90;;;;;;5052769;28;20438;-76
2023/09/05 10:58:53;;;;;;;3.40;3.10;;;25.00;99.90;;;;;;5052559;28;20443;-76
2023/09/05 11:01:48;;;;;;;3.10;2.90;;;25.10;99.90;;;;;;5052433;28;20998;-76
2023/09/05 11:04:29;;;;;;;2.90;2.60;;;25.10;99.90;;;;;;5053927;28;20470;-76
2023/09/05 11:07:07;;;;;;;4.30;2.73;;;25.20;99.90;;;;;;5053925;28;20515;-75
2023/09/05 11:09:48;;;;;;;4.10;2.60;;;25.30;99.90;;;;;;5054085;28;20472;-76
2023/09/05 11:12:18;;;;;;;5.30;2.90;;;25.30;99.90;;;;;;5052262;28;20441;-76
2023/09/05 11:14:48;;;;;;;3.40;2.80;;;25.30;99.90;;;;;;5052151;28;20489;-76
2023/09/05 11:17:17;;;;;;;3.03;2.73;;;25.40;99.90;;;;;;5052144;28;20457;-76
2023/09/05 11:19:48;;;;;;;4.87;2.73;;;25.40;99.90;;;;;;5054660;28;20773;-76
2023/09/05 11:22:21;;;;;;;2.80;2.20;;;25.50;99.90;;;;;;5053584;28;20438;-76
2023/09/05 11:24:50;;;;;;;2.70;2.50;;;25.60;99.90;;;;;;5052306;28;20556;-76
2023/09/05 11:27:21;;;;;;;4.17;2.47;;;25.60;99.90;;;;;;5053544;28;20466;-76
2023/09/05 11:29:55;;;;;;;4.13;2.57;;;25.70;99.90;;;;;;5053601;28;20480;-76
2023/09/05 11:32:29;;;;;;;4.63;2.77;;;25.70;99.90;;;;;;5052184;28;20457;-75
2023/09/05 11:34:58;;;;;;;3.00;2.50;;;25.80;99.90;;;;;;5052137;28;20470;-76
2023/09/05 11:37:28;;;;;;;3.50;3.20;;;25.80;99.90;;;;;;5053950;28;20464;-76
2023/09/05 11:40:09;;;;;;;4.70;2.87;;;25.90;99.90;;;;;;5053287;28;20421;-76
2023/09/05 11:42:37;;;;;;;5.37;2.60;;;25.90;99.90;;;;;;5052296;28;20442;-76
2023/09/05 11:45:16;;;;;;;3.30;2.53;;;26.00;99.90;;;;;;5054224;28;20454;-76
2023/09/05 11:47:45;;;;;;;3.40;2.80;;;26.00;99.90;;;;;;5053378;28;20458;-75
2023/09/05 11:50:15;;;;;;;4.37;2.93;;;26.00;99.90;;;;;;5053373;28;20430;-76
2023/09/05 11:52:43;;;;;;;4.20;3.37;;;26.10;99.90;;;;;;5051910;28;20447;-76
2023/09/05 11:55:12;;;;;;;4.10;3.40;;;26.10;99.90;;;;;;5051913;28;20532;-76
2023/09/05 11:57:40;;;;;;;3.20;2.90;;;26.10;99.90;;;;;;5052081;28;20438;-76
2023/09/05 12:00:13;;;;;;;4.10;2.70;;;26.20;99.90;;;;;;5051782;28;20446;-76
2023/09/05 12:02:41;;;;;;;3.00;2.47;;;26.20;99.90;;;;;;5051653;28;20533;-76
2023/09/05 12:05:12;;;;;;;2.83;2.60;;;26.20;99.90;;;;;;5053037;28;20445;-76
2023/09/05 12:07:40;;;;;;;3.27;2.60;;;26.30;99.90;;;;;;5051665;28;20524;-76
2023/09/05 12:10:13;;;;;;;4.10;2.67;;;26.30;99.90;;;;;;5052905;28;20430;-76
2023/09/05 12:12:54;;;;;;;4.37;2.60;;;26.40;99.90;;;;;;5052096;28;20457;-76
2023/09/05 12:15:32;;;;;;;2.53;2.27;;;26.40;99.90;;;;;;5053434;28;20468;-76
2023/09/05 12:18:04;;;;;;;2.47;2.27;;;26.50;99.90;;;;;;5051642;28;20468;-76
2023/09/05 12:20:35;;;;;;;5.03;3.23;;;26.50;99.90;;;;;;5051818;28;20438;-76
2023/09/05 12:23:05;;;;;;;2.80;2.10;;;26.60;99.90;;;;;;5051445;28;20813;-76
2023/09/05 12:25:36;;;;;;;2.30;2.07;;;26.60;99.90;;;;;;5053011;28;20785;-75
2023/09/05 12:28:23;;;;;;;4.00;3.07;;;26.60;99.90;;;;;;5053037;28;20493;-76
2023/09/05 12:31:05;;;;;;;1.83;1.53;;;26.70;99.90;;;;;;5052010;28;20472;-76
2023/09/05 12:33:34;;;;;;;2.47;1.80;;;26.70;99.90;;;;;;5051478;28;20474;-76
2023/09/05 12:36:02;;;;;;;2.10;1.90;;;26.80;99.90;;;;;;5052664;28;20533;-76
2023/09/05 12:38:31;;;;;;;2.63;2.30;;;26.80;99.90;;;;;;5051393;28;20952;-76
2023/09/05 12:40:59;;;;;;;3.30;2.30;;;26.90;99.90;;;;;;5051325;28;20449;-76
2023/09/05 12:43:27;;;;;;;4.20;3.10;;;27.00;99.90;;;;;;5052574;28;20461;-76
2023/09/05 12:45:57;;;;;;;3.30;2.90;;;27.00;99.90;;;;;;5051264;28;20442;-76
2023/09/05 12:48:25;;;;;;;3.03;2.60;;;27.10;99.90;;;;;;5051221;28;20565;-75
2023/09/05 12:50:55;;;;;;;2.73;2.30;;;27.10;99.90;;;;;;5054107;28;20446;-76
2023/09/05 12:53:23;;;;;;;3.03;2.40;;;27.10;99.90;;;;;;5056174;28;20461;-76
2023/09/05 12:55:51;;;;;;;2.57;2.13;;;27.20;99.90;;;;;;5054828;28;20482;-76